createdAt,value
2019-05-07T00:02:14.326Z,9.55
2019-05-07T00:04:42.932Z,9.58
2019-05-07T00:07:13.043Z,9.59
2019-05-07T00:09:43.003Z,9.54
2019-05-07T00:12:12.685Z,9.47
2019-05-07T00:14:42.978Z,9.44
2019-05-07T00:17:13.079Z,9.47
2019-05-07T00:19:43.189Z,9.45
2019-05-07T00:22:12.519Z,9.41
2019-05-07T00:24:42.606Z,9.29
2019-05-07T00:27:13.150Z,9.19
2019-05-07T00:29:43.238Z,9.15
2019-05-07T00:32:13.235Z,9.03
2019-05-07T00:34:44.561Z,8.91
2019-05-07T00:37:32.278Z,8.89
2019-05-07T00:40:06.873Z,8.90
2019-05-07T00:42:38.413Z,8.93
2019-05-07T00:45:17.860Z,8.97
2019-05-07T00:47:44.424Z,9.01
2019-05-07T00:50:15.971Z,8.95
2019-05-07T00:52:46.508Z,8.95
2019-05-07T00:55:17.974Z,8.93
2019-05-07T00:57:48.141Z,8.91
2019-05-07T01:00:18.156Z,8.89
2019-05-07T01:02:48.464Z,8.88
2019-05-07T01:05:18.728Z,8.84
2019-05-07T01:07:49.132Z,8.73
2019-05-07T01:10:19.598Z,8.61
2019-05-07T01:12:49.365Z,8.45
2019-05-07T01:15:28.809Z,8.37
2019-05-07T01:17:52.348Z,8.32
2019-05-07T01:20:22.277Z,8.28
2019-05-07T01:22:54.407Z,8.21
2019-05-07T01:25:23.796Z,8.16
2019-05-07T01:27:53.645Z,8.06
2019-05-07T01:30:23.943Z,8.00
2019-05-07T01:32:55.379Z,8.02
2019-05-07T01:35:33.412Z,8.02
2019-05-07T01:38:03.691Z,8.06
2019-05-07T01:40:34.173Z,8.05
2019-05-07T01:43:05.588Z,8.01
2019-05-07T01:45:46.411Z,8.09
2019-05-07T01:48:09.263Z,8.08
2019-05-07T01:50:39.561Z,8.08
2019-05-07T01:53:09.656Z,8.14
2019-05-07T01:55:40.134Z,8.15
2019-05-07T01:58:12.363Z,8.11
2019-05-07T02:00:42.591Z,8.11
2019-05-07T02:03:17.346Z,8.20
2019-05-07T02:05:49.290Z,8.12
2019-05-07T02:08:22.216Z,8.16
2019-05-07T02:10:54.042Z,8.05
2019-05-07T02:13:23.838Z,8.12
2019-05-07T02:16:00.884Z,8.13
2019-05-07T02:18:25.549Z,8.01
2019-05-07T02:20:55.766Z,7.95
2019-05-07T02:23:25.745Z,7.95
2019-05-07T02:25:57.292Z,7.93
2019-05-07T02:28:28.625Z,7.81
2019-05-07T02:30:58.879Z,7.71
2019-05-07T02:33:28.828Z,7.67
2019-05-07T02:35:59.402Z,7.70
2019-05-07T02:38:47.334Z,7.76
2019-05-07T02:41:23.440Z,7.78
2019-05-07T02:43:54.441Z,7.63
2019-05-07T02:46:31.546Z,7.53
2019-05-07T02:49:02.883Z,7.53
2019-05-07T02:51:33.840Z,7.25
2019-05-07T02:54:14.181Z,7.39
2019-05-07T02:56:44.251Z,7.39
2019-05-07T02:59:14.769Z,7.29
2019-05-07T03:01:45.190Z,7.31
2019-05-07T03:04:15.433Z,7.31
2019-05-07T03:06:45.965Z,7.12
2019-05-07T03:09:15.952Z,7.12
2019-05-07T03:11:46.494Z,7.17
2019-05-07T03:14:16.464Z,7.07
2019-05-07T03:16:49.279Z,7.07
2019-05-07T03:19:16.989Z,7.03
2019-05-07T03:21:54.915Z,6.89
2019-05-07T03:24:27.471Z,6.84
2019-05-07T03:26:58.276Z,6.82
2019-05-07T03:29:28.817Z,6.82
2019-05-07T03:32:09.672Z,6.76
2019-05-07T03:34:45.799Z,6.65
2019-05-07T03:37:14.415Z,6.54
2019-05-07T03:39:44.469Z,6.52
2019-05-07T03:42:14.815Z,6.54
2019-05-07T03:45:03.701Z,6.51
2019-05-07T03:47:43.900Z,6.44
2019-05-07T03:50:14.581Z,6.44
2019-05-07T03:52:45.648Z,6.42
2019-05-07T03:55:16.820Z,6.42
2019-05-07T03:57:46.824Z,6.41
2019-05-07T04:00:17.497Z,6.41
2019-05-07T04:02:47.902Z,6.38
2019-05-07T04:05:18.078Z,6.42
2019-05-07T04:07:48.462Z,6.38
2019-05-07T04:10:16.938Z,6.30
2019-05-07T04:12:45.270Z,6.35
2019-05-07T04:15:16.703Z,6.35
2019-05-07T04:17:43.944Z,6.39
2019-05-07T04:20:13.470Z,6.36
2019-05-07T04:22:43.284Z,6.36
2019-05-07T04:25:14.694Z,6.65
2019-05-07T04:27:47.476Z,6.65
2019-05-07T04:30:16.024Z,6.70
2019-05-07T04:32:54.908Z,6.77
2019-05-07T04:35:27.462Z,6.77
2019-05-07T04:37:55.892Z,6.79
2019-05-07T04:40:24.359Z,6.92
2019-05-07T04:42:53.799Z,6.88
2019-05-07T04:45:23.517Z,6.37
2019-05-07T04:47:53.847Z,6.94
2019-05-07T04:50:38.248Z,6.94
2019-05-07T04:52:54.131Z,6.89
2019-05-07T04:55:23.086Z,6.89
2019-05-07T04:57:53.362Z,6.95
2019-05-07T05:00:22.927Z,6.95
2019-05-07T05:02:55.720Z,6.96
2019-05-07T05:05:25.035Z,6.96
2019-05-07T05:07:53.607Z,6.95
2019-05-07T05:10:23.177Z,7.00
2019-05-07T05:12:53.582Z,7.10
2019-05-07T05:15:22.345Z,7.10
2019-05-07T05:17:53.689Z,7.04
2019-05-07T05:20:22.771Z,7.02
2019-05-07T05:22:53.244Z,7.02
2019-05-07T05:25:25.966Z,7.07
2019-05-07T05:27:54.267Z,7.15
2019-05-07T05:30:39.180Z,7.15
2019-05-07T05:33:07.540Z,7.18
2019-05-07T05:35:37.039Z,7.18
2019-05-07T05:38:05.787Z,7.38
2019-05-07T05:40:34.399Z,7.38
2019-05-07T05:43:22.304Z,7.38
2019-05-07T05:45:53.003Z,7.47
2019-05-07T05:48:22.367Z,7.54
2019-05-07T05:51:02.699Z,7.68
2019-05-07T05:53:52.416Z,7.83
2019-05-07T05:56:28.469Z,8.04
2019-05-07T05:59:02.845Z,8.04
2019-05-07T06:01:33.039Z,8.15
2019-05-07T06:04:18.386Z,8.28
2019-05-07T06:07:08.015Z,8.39
2019-05-07T06:09:32.805Z,8.39
2019-05-07T06:12:08.952Z,8.43
2019-05-07T06:14:47.751Z,8.59
2019-05-07T06:17:31.929Z,8.63
2019-05-07T06:20:13.558Z,8.94
2019-05-07T06:22:55.964Z,9.08
2019-05-07T06:25:26.329Z,9.26
2019-05-07T06:27:54.803Z,9.45
2019-05-07T06:30:23.288Z,9.59
2019-05-07T06:32:52.274Z,9.68
2019-05-07T06:35:22.826Z,9.80
2019-05-07T06:37:52.145Z,9.93
2019-05-07T06:40:26.643Z,10.01
2019-05-07T06:43:06.011Z,10.12
2019-05-07T06:45:36.026Z,10.20
2019-05-07T06:48:04.883Z,10.34
2019-05-07T06:50:33.320Z,10.56
2019-05-07T06:53:02.670Z,10.73
2019-05-07T06:55:32.419Z,10.89
2019-05-07T06:58:02.621Z,11.01
2019-05-07T07:00:39.517Z,11.00
2019-05-07T07:03:09.627Z,11.03
2019-05-07T07:05:39.652Z,11.18
2019-05-07T07:08:09.820Z,11.33
2019-05-07T07:10:48.531Z,11.41
2019-05-07T07:13:17.000Z,11.39
2019-05-07T07:15:45.376Z,11.53
2019-05-07T07:18:13.910Z,11.62
2019-05-07T07:20:43.023Z,11.73
2019-05-07T07:23:11.847Z,11.90
2019-05-07T07:25:42.856Z,12.04
2019-05-07T07:28:12.349Z,12.09
2019-05-07T07:30:57.396Z,12.21
2019-05-07T07:33:27.476Z,12.33
2019-05-07T07:35:56.269Z,12.49
2019-05-07T07:38:35.373Z,12.68
2019-05-07T07:41:17.517Z,12.90
2019-05-07T07:43:45.801Z,13.08
2019-05-07T07:46:16.518Z,12.86
2019-05-07T07:48:44.622Z,12.68
2019-05-07T07:51:13.859Z,12.58
2019-05-07T07:53:42.819Z,12.69
2019-05-07T07:56:27.941Z,12.73
2019-05-07T07:59:14.159Z,12.81
2019-05-07T08:02:01.837Z,12.99
2019-05-07T08:04:32.041Z,13.23
2019-05-07T08:07:03.817Z,13.53
2019-05-07T08:09:35.642Z,13.80
2019-05-07T08:12:05.503Z,13.82
2019-05-07T08:14:34.195Z,13.45
2019-05-07T08:17:04.419Z,13.56
2019-05-07T08:19:33.121Z,14.00
2019-05-07T08:22:02.783Z,14.16
2019-05-07T08:24:32.213Z,14.35
2019-05-07T08:27:02.322Z,14.48
2019-05-07T08:29:32.625Z,14.56
2019-05-07T08:32:09.297Z,14.52
2019-05-07T08:34:39.516Z,14.39
2019-05-07T08:37:09.112Z,14.31
2019-05-07T08:39:37.565Z,14.50
2019-05-07T08:42:05.973Z,14.82
2019-05-07T08:44:51.992Z,15.08
2019-05-07T08:47:25.075Z,15.28
2019-05-07T08:49:53.349Z,15.41
2019-05-07T08:52:22.696Z,15.40
2019-05-07T08:54:52.237Z,15.45
2019-05-07T08:57:22.790Z,15.38
2019-05-07T08:59:58.481Z,15.09
2019-05-07T09:02:22.237Z,15.06
2019-05-07T09:04:52.252Z,14.93
2019-05-07T09:07:21.875Z,14.90
2019-05-07T09:09:52.404Z,14.89
2019-05-07T09:12:22.744Z,15.14
2019-05-07T09:14:52.731Z,15.63
2019-05-07T09:17:22.783Z,16.24
2019-05-07T09:19:54.508Z,16.76
2019-05-07T09:22:23.026Z,16.58
2019-05-07T09:24:52.655Z,16.15
2019-05-07T09:27:23.084Z,15.76
2019-05-07T09:29:59.182Z,15.65
2019-05-07T09:32:29.161Z,15.51
2019-05-07T09:34:59.110Z,15.43
2019-05-07T09:37:29.178Z,15.85
2019-05-07T09:39:57.643Z,16.04
2019-05-07T09:42:26.558Z,16.15
2019-05-07T09:44:54.933Z,15.75
2019-05-07T09:47:23.445Z,15.34
2019-05-07T09:50:04.027Z,15.20
2019-05-07T09:52:22.871Z,14.98
2019-05-07T09:54:52.294Z,14.82
2019-05-07T09:57:30.105Z,14.58
2019-05-07T09:59:53.050Z,14.14
2019-05-07T10:02:22.701Z,13.80
2019-05-07T10:04:52.594Z,13.86
2019-05-07T10:07:22.325Z,13.92
2019-05-07T10:09:52.346Z,14.17
2019-05-07T10:12:25.716Z,14.49
2019-05-07T10:14:54.101Z,14.99
2019-05-07T10:17:26.643Z,15.40
2019-05-07T10:19:55.071Z,15.76
2019-05-07T10:22:23.445Z,16.37
2019-05-07T10:24:52.283Z,16.96
2019-05-07T10:27:21.825Z,17.41
2019-05-07T10:29:50.293Z,17.64
2019-05-07T10:32:20.409Z,17.92
2019-05-07T10:34:49.060Z,18.10
2019-05-07T10:37:17.457Z,18.42
2019-05-07T10:39:46.132Z,18.75
2019-05-07T10:42:14.491Z,18.83
2019-05-07T10:44:52.316Z,18.65
2019-05-07T10:47:33.998Z,18.51
2019-05-07T10:50:34.598Z,18.32
2019-05-07T10:52:52.856Z,18.14
2019-05-07T10:55:22.323Z,17.40
2019-05-07T10:57:52.745Z,17.06
2019-05-07T11:00:22.944Z,16.89
2019-05-07T11:02:51.862Z,16.61
2019-05-07T11:05:21.929Z,16.41
2019-05-07T11:07:50.434Z,16.28
2019-05-07T11:10:18.892Z,16.26
2019-05-07T11:12:47.251Z,16.46
2019-05-07T11:15:15.911Z,16.65
2019-05-07T11:17:54.916Z,16.84
2019-05-07T11:20:24.979Z,17.21
2019-05-07T11:22:53.439Z,17.53
2019-05-07T11:25:22.571Z,17.77
2019-05-07T11:27:52.401Z,17.85
2019-05-07T11:30:22.799Z,17.82
2019-05-07T11:32:52.246Z,17.81
2019-05-07T11:35:22.907Z,17.37
2019-05-07T11:37:52.138Z,17.40
2019-05-07T11:40:22.879Z,17.59
2019-05-07T11:43:07.924Z,17.47
2019-05-07T11:45:37.874Z,17.12
2019-05-07T11:48:06.346Z,16.61
2019-05-07T11:50:36.551Z,16.68
2019-05-07T11:53:09.168Z,16.82
2019-05-07T11:55:37.466Z,17.02
2019-05-07T11:58:06.151Z,17.42
2019-05-07T12:00:36.247Z,17.82
2019-05-07T12:03:04.881Z,18.28
2019-05-07T12:05:34.930Z,18.97
2019-05-07T12:08:03.509Z,19.53
2019-05-07T12:10:32.755Z,19.55
2019-05-07T12:13:02.345Z,19.72
2019-05-07T12:15:32.439Z,20.15
2019-05-07T12:18:03.100Z,20.32
2019-05-07T12:20:32.436Z,19.96
2019-05-07T12:23:02.848Z,19.85
2019-05-07T12:25:32.053Z,20.23
2019-05-07T12:28:02.340Z,20.48
2019-05-07T12:30:32.773Z,20.76
2019-05-07T12:33:12.368Z,20.86
2019-05-07T12:35:42.034Z,20.85
2019-05-07T12:38:12.685Z,21.10
2019-05-07T12:40:41.890Z,21.34
2019-05-07T12:43:10.634Z,21.61
2019-05-07T12:45:39.079Z,21.61
2019-05-07T12:48:07.495Z,21.81
2019-05-07T12:50:35.824Z,21.73
2019-05-07T12:53:18.167Z,21.94
2019-05-07T12:55:48.110Z,22.19
2019-05-07T12:58:16.549Z,22.28
2019-05-07T13:00:52.445Z,22.48
2019-05-07T13:03:35.002Z,22.49
2019-05-07T13:06:03.431Z,21.83
2019-05-07T13:08:32.937Z,21.38
2019-05-07T13:11:03.111Z,21.16
2019-05-07T13:13:32.104Z,20.35
2019-05-07T13:16:02.713Z,20.05
2019-05-07T13:18:30.966Z,20.08
2019-05-07T13:20:59.486Z,20.39
2019-05-07T13:23:27.923Z,20.61
2019-05-07T13:25:56.516Z,20.61
2019-05-07T13:28:24.844Z,20.34
2019-05-07T13:30:53.162Z,20.35
2019-05-07T13:33:22.818Z,20.51
2019-05-07T13:35:52.247Z,20.99
2019-05-07T13:38:28.181Z,21.62
2019-05-07T13:41:07.321Z,22.16
2019-05-07T13:43:37.504Z,22.63
2019-05-07T13:46:07.637Z,22.71
2019-05-07T13:48:37.941Z,22.51
2019-05-07T13:51:06.324Z,21.91
2019-05-07T13:53:34.702Z,21.16
2019-05-07T13:56:03.147Z,20.68
2019-05-07T13:58:32.945Z,20.45
2019-05-07T14:01:08.844Z,20.42
2019-05-07T14:03:37.225Z,20.68
2019-05-07T14:06:05.619Z,20.96
2019-05-07T14:08:35.613Z,21.32
2019-05-07T14:11:04.041Z,21.69
2019-05-07T14:13:32.699Z,21.40
2019-05-07T14:16:08.833Z,20.97
2019-05-07T14:18:38.569Z,20.90
2019-05-07T14:21:07.895Z,20.71
2019-05-07T14:23:36.771Z,20.28
2019-05-07T14:26:05.438Z,19.90
2019-05-07T14:28:34.042Z,19.32
2019-05-07T14:31:04.056Z,18.90
2019-05-07T14:33:37.138Z,18.75
2019-05-07T14:36:19.093Z,19.24
2019-05-07T14:38:56.265Z,19.56
2019-05-07T14:41:25.669Z,19.74
2019-05-07T14:43:56.183Z,19.27
2019-05-07T14:46:24.558Z,18.85
2019-05-07T14:48:53.255Z,18.60
2019-05-07T14:51:22.141Z,18.65
2019-05-07T14:53:50.662Z,19.04
2019-05-07T14:56:19.101Z,19.38
2019-05-07T14:58:47.711Z,19.58
2019-05-07T15:01:16.087Z,19.59
2019-05-07T15:03:45.187Z,19.62
2019-05-07T15:06:13.708Z,19.61
2019-05-07T15:08:42.898Z,19.83
2019-05-07T15:11:11.448Z,19.60
2019-05-07T15:13:39.860Z,19.36
2019-05-07T15:16:08.228Z,19.31
2019-05-07T15:18:43.939Z,19.37
2019-05-07T15:21:13.334Z,19.41
2019-05-07T15:23:42.521Z,19.38
2019-05-07T15:26:12.801Z,19.15
2019-05-07T15:28:43.008Z,18.99
2019-05-07T15:31:15.504Z,18.92
2019-05-07T15:33:44.151Z,18.80
2019-05-07T15:36:12.492Z,18.81
2019-05-07T15:38:42.715Z,18.89
2019-05-07T15:41:11.094Z,19.07
2019-05-07T15:43:39.548Z,19.09
2019-05-07T15:46:07.944Z,19.13
2019-05-07T15:48:36.319Z,19.27
2019-05-07T15:51:04.706Z,19.33
2019-05-07T15:53:34.829Z,19.36
2019-05-07T15:56:03.560Z,19.31
2019-05-07T15:58:32.107Z,19.29
2019-05-07T16:01:02.214Z,19.28
2019-05-07T16:03:34.987Z,19.23
2019-05-07T16:06:03.786Z,19.13
2019-05-07T16:08:34.051Z,18.88
2019-05-07T16:11:03.823Z,18.72
2019-05-07T16:13:33.877Z,18.65
2019-05-07T16:16:02.439Z,18.52
2019-05-07T16:18:32.764Z,18.33
2019-05-07T16:21:02.483Z,18.08
2019-05-07T16:23:32.638Z,18.14
2019-05-07T16:26:02.500Z,18.22
2019-05-07T16:28:32.406Z,18.18
2019-05-07T16:31:02.556Z,18.04
2019-05-07T16:33:31.972Z,17.99
2019-05-07T16:36:02.121Z,17.96
2019-05-07T16:38:32.572Z,17.98
2019-05-07T16:41:00.623Z,17.98
2019-05-07T16:43:28.914Z,17.90
2019-05-07T16:45:57.290Z,17.73
2019-05-07T16:48:25.638Z,17.56
2019-05-07T16:50:54.106Z,17.38
2019-05-07T16:53:29.729Z,17.34
2019-05-07T16:55:52.657Z,17.36
2019-05-07T16:58:34.892Z,17.27
2019-05-07T17:01:03.955Z,17.13
2019-05-07T17:03:34.080Z,17.02
2019-05-07T17:06:02.376Z,16.88
2019-05-07T17:08:32.437Z,16.88
2019-05-07T17:11:02.896Z,16.92
2019-05-07T17:13:31.905Z,16.96
2019-05-07T17:16:03.412Z,16.99
2019-05-07T17:18:32.766Z,17.00
2019-05-07T17:21:02.027Z,17.01
2019-05-07T17:23:43.265Z,16.95
2019-05-07T17:26:00.914Z,16.96
2019-05-07T17:28:29.351Z,16.94
2019-05-07T17:30:57.676Z,16.89
2019-05-07T17:33:26.176Z,16.85
2019-05-07T17:35:54.765Z,16.86
2019-05-07T17:38:23.311Z,16.77
2019-05-07T17:40:52.429Z,16.73
2019-05-07T17:43:22.044Z,16.67
2019-05-07T17:45:52.365Z,16.61
2019-05-07T17:48:23.046Z,16.58
2019-05-07T17:50:52.648Z,16.57
2019-05-07T17:53:22.532Z,16.57
2019-05-07T17:55:52.862Z,16.54
2019-05-07T17:58:21.268Z,16.47
2019-05-07T18:00:52.870Z,16.42
2019-05-07T18:03:22.898Z,16.35
2019-05-07T18:05:51.953Z,16.28
2019-05-07T18:08:21.739Z,16.21
2019-05-07T18:10:50.217Z,16.12
2019-05-07T18:13:18.612Z,16.01
2019-05-07T18:15:47.059Z,15.89
2019-05-07T18:18:15.447Z,15.82
2019-05-07T18:20:47.409Z,15.72
2019-05-07T18:23:17.089Z,15.60
2019-05-07T18:25:46.798Z,15.51
2019-05-07T18:28:16.170Z,15.43
2019-05-07T18:30:44.803Z,15.40
2019-05-07T18:33:14.910Z,15.31
2019-05-07T18:35:45.650Z,15.20
2019-05-07T18:38:14.098Z,15.14
2019-05-07T18:40:42.429Z,15.07
2019-05-07T18:43:12.294Z,15.00
2019-05-07T18:45:41.018Z,14.82
2019-05-07T18:48:11.726Z,14.65
2019-05-07T18:50:41.796Z,14.56
2019-05-07T18:53:11.986Z,14.46
2019-05-07T18:55:42.193Z,14.40
2019-05-07T18:58:10.343Z,14.37
2019-05-07T19:00:46.585Z,14.35
2019-05-07T19:03:15.009Z,14.38
2019-05-07T19:05:43.425Z,14.41
2019-05-07T19:08:12.566Z,14.49
2019-05-07T19:10:42.923Z,14.48
2019-05-07T19:13:11.462Z,14.39
2019-05-07T19:15:42.032Z,14.43
2019-05-07T19:18:12.027Z,14.45
2019-05-07T19:20:42.184Z,14.38
2019-05-07T19:23:10.755Z,14.38
2019-05-07T19:25:39.225Z,14.40
2019-05-07T19:28:07.903Z,14.38
2019-05-07T19:30:36.408Z,14.39
2019-05-07T19:33:04.956Z,14.36
2019-05-07T19:35:33.398Z,14.35
2019-05-07T19:38:02.813Z,14.33
2019-05-07T19:40:32.473Z,14.32
2019-05-07T19:43:03.043Z,14.32
2019-05-07T19:45:31.207Z,14.27
2019-05-07T19:47:59.773Z,14.31
2019-05-07T19:50:28.117Z,14.31
2019-05-07T19:52:56.687Z,14.33
2019-05-07T19:55:25.072Z,14.35
2019-05-07T20:00:29.750Z,14.38
2019-05-07T20:02:59.810Z,14.42
2019-05-07T20:05:28.251Z,14.41
2019-05-07T20:08:01.685Z,14.41
2019-05-07T20:10:28.970Z,14.41
2019-05-07T20:12:57.424Z,14.32
2019-05-07T20:15:26.625Z,14.32
2019-05-07T20:17:55.064Z,14.33
2019-05-07T20:20:23.555Z,14.35
2019-05-07T20:22:51.967Z,14.35
2019-05-07T20:25:22.412Z,14.29
2019-05-07T20:27:52.586Z,14.31
2019-05-07T20:30:22.753Z,14.28
2019-05-07T20:32:52.307Z,14.30
2019-05-07T20:35:20.847Z,14.20
2019-05-07T20:37:49.444Z,14.09
2019-05-07T20:40:17.937Z,14.13
2019-05-07T20:42:46.463Z,14.09
2019-05-07T20:45:15.021Z,14.11
2019-05-07T20:47:43.468Z,14.09
2019-05-07T20:50:12.915Z,14.09
2019-05-07T20:52:41.883Z,14.09
2019-05-07T20:55:28.156Z,14.05
2019-05-07T20:57:47.443Z,13.78
2019-05-07T21:00:29.701Z,13.97
2019-05-07T21:03:12.553Z,13.92
2019-05-07T21:05:42.203Z,13.84
2019-05-07T21:08:11.906Z,13.71
2019-05-07T21:10:42.639Z,13.58
2019-05-07T21:13:26.824Z,13.49
2019-05-07T21:15:41.926Z,13.45
2019-05-07T21:18:12.306Z,13.41
2019-05-07T21:20:42.076Z,13.38
2019-05-07T21:23:12.220Z,13.37
2019-05-07T21:25:43.473Z,13.37
2019-05-07T21:28:12.200Z,13.33
2019-05-07T21:30:42.710Z,13.31
2019-05-07T21:33:11.945Z,13.26
2019-05-07T21:35:42.707Z,13.20
2019-05-07T21:38:12.629Z,13.12
2019-05-07T21:40:42.870Z,12.97
2019-05-07T21:43:12.312Z,12.90
2019-05-07T21:45:42.351Z,12.86
2019-05-07T21:48:10.800Z,12.76
2019-05-07T21:50:39.295Z,12.68
2019-05-07T21:53:26.928Z,12.50
2019-05-07T21:56:02.204Z,12.33
2019-05-07T21:58:30.137Z,12.20
2019-05-07T22:01:12.627Z,12.17
2019-05-07T22:03:43.164Z,12.18
2019-05-07T22:06:12.853Z,12.19
2019-05-07T22:08:41.368Z,12.21
2019-05-07T22:11:12.376Z,12.32
2019-05-07T22:13:43.306Z,12.37
2019-05-07T22:16:12.961Z,12.45
2019-05-07T22:18:42.680Z,12.52
2019-05-07T22:21:12.501Z,12.58
2019-05-07T22:23:42.763Z,12.59
2019-05-07T22:26:20.098Z,12.61
2019-05-07T22:28:42.012Z,12.59
2019-05-07T22:31:24.343Z,12.67
2019-05-07T22:33:54.420Z,12.73
2019-05-07T22:36:22.793Z,12.72
2019-05-07T22:38:52.863Z,12.68
2019-05-07T22:41:22.444Z,12.72
2019-05-07T22:43:51.008Z,12.62
2019-05-07T22:46:19.313Z,12.28
2019-05-07T22:48:47.695Z,12.54
2019-05-07T22:51:15.995Z,12.53
2019-05-07T22:53:44.333Z,12.54
2019-05-07T22:56:14.139Z,12.58
2019-05-07T22:58:50.350Z,12.59
2019-05-07T23:01:22.630Z,12.71
2019-05-07T23:03:51.814Z,12.73
2019-05-07T23:06:23.216Z,12.70
2019-05-07T23:08:52.869Z,12.71
2019-05-07T23:11:22.919Z,12.62
2019-05-07T23:13:54.373Z,12.61
2019-05-07T23:16:23.155Z,12.44
2019-05-07T23:18:51.787Z,12.68
2019-05-07T23:21:24.271Z,12.66
2019-05-07T23:23:52.621Z,12.66
2019-05-07T23:26:20.302Z,12.66
2019-05-07T23:28:48.781Z,12.63
2019-05-07T23:31:17.109Z,12.55
2019-05-07T23:33:45.390Z,12.52
2019-05-07T23:36:13.777Z,12.50
2019-05-07T23:38:42.746Z,12.46
2019-05-07T23:41:15.876Z,12.43
2019-05-07T23:43:45.903Z,12.37
2019-05-07T23:46:14.299Z,12.28
2019-05-07T23:48:42.785Z,12.29
2019-05-07T23:51:12.615Z,12.30
2019-05-07T23:53:44.155Z,12.22
2019-05-07T23:56:13.095Z,12.25
2019-05-07T23:58:42.033Z,12.17
